Météo Nord-Pas-de-Calais   La météo au plus près de chez vous

Station météorologique

Observations météo à Batz (29082)

29082001 32 m Dernier relevé à 08:30
16.6°C
Vent 31 km/h

Journée consultée

Lundi 31 Août 2026

Synthèse de la journée

Périodes de référence en UTC

Température maximale

16.6°C

à 08:06

06h 06h

Température minimale

16.4°C

à 07:24

18h 18h

Rafale maximale

50 km/h

à 02:12

00h 00h

Précipitations

0 mm

Cumul quotidien

06h 06h

Graphiques de la journée

Heure locale Réduire

Données détaillées

Relevés météo

Pas de 6 minutes Afficher les relevés infra-horaires
Relevés météo détaillés à Batz pour le Lundi 31 Août 2026
Heure Température °C Vent moyen (raf.), km/h Précipitations mm
08:30 16.6 °C 35 km/h (44 km/h) 0 mm0 mm
08:24 16.6 °C 33 km/h (44 km/h) 0 mm0 mm
08:18 16.6 °C 33 km/h (44 km/h) 0 mm0 mm
08:12 16.6 °C 34 km/h (46 km/h) 0 mm0 mm
08:06 16.6 °C 35 km/h (46 km/h) 0 mm0 mm
08:00 16.6 °C 35 km/h (44 km/h) 0 mm0 mm
07:54 16.6 °C 33 km/h (44 km/h) 0 mm0 mm
07:48 16.6 °C 33 km/h (43 km/h) 0 mm0 mm
07:42 16.5 °C 30 km/h (43 km/h) 0 mm0 mm
07:36 16.5 °C 30 km/h (43 km/h) 0 mm0 mm
07:30 16.4 °C 31 km/h (44 km/h) 0 mm0 mm
07:24 16.4 °C 32 km/h (46 km/h) 0 mm0 mm
07:18 16.5 °C 31 km/h (46 km/h) 0 mm0 mm
07:12 16.5 °C 31 km/h (44 km/h) 0 mm0 mm
07:06 16.6 °C 30 km/h (44 km/h) 0 mm0 mm
07:00 16.6 °C 31 km/h (44 km/h) 0 mm0 mm
06:54 16.7 °C 32 km/h (46 km/h) 0 mm0 mm
06:48 16.8 °C 31 km/h (45 km/h) 0 mm0 mm
06:42 16.6 °C 31 km/h (44 km/h) 0 mm0 mm
06:36 16.6 °C 33 km/h (45 km/h) 0 mm0 mm
06:30 16.6 °C 32 km/h (45 km/h) 0 mm0 mm
06:24 16.7 °C 32 km/h (47 km/h) 0 mm0 mm
06:18 16.7 °C 31 km/h (47 km/h) 0 mm0 mm
06:12 16.8 °C 32 km/h (45 km/h) 0 mm0 mm
06:06 16.8 °C 31 km/h (42 km/h) 0 mm0 mm
06:00 16.9 °C 31 km/h (43 km/h) 0 mm0 mm
05:54 17 °C 31 km/h (46 km/h) 0 mm0 mm
05:48 16.9 °C 30 km/h (46 km/h) 0 mm0 mm
05:42 16.9 °C 27 km/h (45 km/h) 0 mm0 mm
05:36 16.8 °C 25 km/h (38 km/h) 0 mm0 mm
05:30 16.7 °C 26 km/h (37 km/h) 0 mm0 mm
05:24 16.7 °C 27 km/h (39 km/h) 0 mm0 mm
05:18 16.7 °C 27 km/h (39 km/h) 0 mm0 mm
05:12 16.6 °C 28 km/h (40 km/h) 0 mm0 mm
05:06 16.6 °C 28 km/h (41 km/h) 0 mm0 mm
05:00 16.6 °C 30 km/h (41 km/h) 0 mm0 mm
04:54 16.6 °C 29 km/h (40 km/h) 0 mm0 mm
04:48 16.6 °C 28 km/h (41 km/h) 0 mm0 mm
04:42 16.6 °C 29 km/h (42 km/h) 0 mm0 mm
04:36 16.6 °C 31 km/h (45 km/h) 0 mm0 mm
04:30 16.6 °C 30 km/h (44 km/h) 0 mm0 mm
04:24 16.7 °C 30 km/h (41 km/h) 0 mm0 mm
04:18 16.6 °C 28 km/h (41 km/h) 0 mm0 mm
04:12 16.6 °C 26 km/h (40 km/h) 0 mm0 mm
04:06 16.6 °C 26 km/h (37 km/h) 0 mm0 mm
04:00 16.6 °C 25 km/h (37 km/h) 0 mm0 mm
03:54 16.6 °C 24 km/h (39 km/h) 0 mm0 mm
03:48 16.6 °C 27 km/h (43 km/h) 0 mm0 mm
03:42 16.7 °C 28 km/h (43 km/h) 0 mm0 mm
03:36 16.6 °C 31 km/h (42 km/h) 0 mm0 mm
03:30 16.6 °C 29 km/h (41 km/h) 0 mm0 mm
03:24 16.6 °C 28 km/h (41 km/h) 0 mm0 mm
03:18 16.7 °C 29 km/h (41 km/h) 0 mm0 mm
03:12 16.7 °C 30 km/h (46 km/h) 0 mm0 mm
03:06 16.8 °C 30 km/h (46 km/h) 0 mm0 mm
03:00 16.8 °C 30 km/h (43 km/h) 0 mm0 mm
02:54 16.8 °C 31 km/h (45 km/h) 0 mm0 mm
02:48 16.9 °C 30 km/h (44 km/h) 0 mm0 mm
02:42 16.8 °C 30 km/h (44 km/h) 0 mm0 mm
02:36 16.8 °C 29 km/h (41 km/h) 0 mm0 mm
02:30 16.8 °C 27 km/h (40 km/h) 0 mm0 mm
02:24 16.6 °C 29 km/h (42 km/h) 0 mm0 mm
02:18 16.7 °C 33 km/h (50 km/h) 0 mm0 mm
02:12 16.9 °C 35 km/h (50 km/h) 0 mm0 mm
02:06 17.1 °C 34 km/h (46 km/h) 0 mm0 mm
02:00 17.1 °C 33 km/h (44 km/h) 0 mm0 mm
01:54 17.1 °C 33 km/h (47 km/h) 0 mm0 mm
01:48 17.1 °C 32 km/h (47 km/h) 0 mm0 mm
01:42 17 °C 31 km/h (43 km/h) 0 mm0 mm
01:36 17 °C 32 km/h (43 km/h) 0 mm0 mm
01:30 16.9 °C 31 km/h (43 km/h) 0 mm0 mm
01:24 16.8 °C 31 km/h (43 km/h) 0 mm0 mm
01:18 16.8 °C 31 km/h (43 km/h) 0 mm0 mm
01:12 16.8 °C 31 km/h (44 km/h) 0 mm0 mm
01:06 16.8 °C 30 km/h (44 km/h) 0 mm0 mm
01:00 16.8 °C 31 km/h (48 km/h) 0 mm0.2 mm
00:54 16.8 °C 31 km/h (45 km/h) 0 mm0 mm
00:48 16.8 °C 32 km/h (44 km/h) 0.2 mm0 mm
00:42 16.8 °C 32 km/h (47 km/h) 0 mm0 mm
00:36 16.8 °C 29 km/h (43 km/h) 0 mm0 mm
00:30 16.8 °C 29 km/h (40 km/h) 0 mm0 mm
00:24 16.9 °C 30 km/h (44 km/h) 0 mm0 mm
00:18 16.9 °C 28 km/h (42 km/h) 0 mm0 mm
00:12 16.9 °C 30 km/h (44 km/h) 0 mm0 mm
00:06 16.9 °C 30 km/h (46 km/h) 0 mm0 mm
00:00 17 °C 30 km/h (46 km/h) 0 mm0 mm

Données via Météo-France

Relevés météo à Batz

Cette page rassemble les observations de la station de Batz : température, humidité, vent, précipitations et pression atmosphérique. Les graphiques facilitent le suivi de la journée, tandis que le tableau donne accès aux mesures horaires et infra-horaires disponibles.

Pour replacer ces mesures dans leur contexte, consultez la climatologie de Batz ainsi que ses normales et records. Retrouvez aussi la carte des observations météo en temps réel.